sensor_id;sensor_type;location;lat;lon;timestamp;P1;durP1;ratioP1;P2;durP2;ratioP2
3443;SDS011;1736;52.068;6.968;2023-08-07T00:01:16;6.73;;;4.03;;
3443;SDS011;1736;52.068;6.968;2023-08-07T00:03:43;5.10;;;4.00;;
3443;SDS011;1736;52.068;6.968;2023-08-07T00:06:09;6.40;;;4.07;;
3443;SDS011;1736;52.068;6.968;2023-08-07T00:08:36;9.73;;;5.93;;
3443;SDS011;1736;52.068;6.968;2023-08-07T00:11:08;8.47;;;4.50;;
3443;SDS011;1736;52.068;6.968;2023-08-07T00:13:35;8.57;;;5.10;;
3443;SDS011;1736;52.068;6.968;2023-08-07T00:16:02;14.67;;;4.60;;
3443;SDS011;1736;52.068;6.968;2023-08-07T00:18:28;8.80;;;4.07;;
3443;SDS011;1736;52.068;6.968;2023-08-07T00:20:55;15.43;;;3.87;;
3443;SDS011;1736;52.068;6.968;2023-08-07T00:23:22;7.97;;;3.70;;
3443;SDS011;1736;52.068;6.968;2023-08-07T00:25:49;9.53;;;3.90;;
3443;SDS011;1736;52.068;6.968;2023-08-07T00:28:17;6.13;;;3.10;;
3443;SDS011;1736;52.068;6.968;2023-08-07T00:30:43;6.50;;;3.10;;
3443;SDS011;1736;52.068;6.968;2023-08-07T00:33:10;5.47;;;2.70;;
3443;SDS011;1736;52.068;6.968;2023-08-07T00:35:37;7.60;;;3.13;;
3443;SDS011;1736;52.068;6.968;2023-08-07T00:38:03;8.13;;;3.20;;
3443;SDS011;1736;52.068;6.968;2023-08-07T00:40:35;6.50;;;3.30;;
3443;SDS011;1736;52.068;6.968;2023-08-07T00:43:02;7.23;;;3.70;;
3443;SDS011;1736;52.068;6.968;2023-08-07T00:45:30;7.97;;;3.50;;
3443;SDS011;1736;52.068;6.968;2023-08-07T00:48:00;11.13;;;3.70;;
3443;SDS011;1736;52.068;6.968;2023-08-07T00:50:27;8.70;;;3.50;;
3443;SDS011;1736;52.068;6.968;2023-08-07T00:52:54;5.93;;;2.60;;
3443;SDS011;1736;52.068;6.968;2023-08-07T00:55:21;6.20;;;2.70;;
3443;SDS011;1736;52.068;6.968;2023-08-07T00:57:48;4.97;;;2.30;;
3443;SDS011;1736;52.068;6.968;2023-08-07T01:00:15;3.10;;;2.57;;
3443;SDS011;1736;52.068;6.968;2023-08-07T01:02:45;2.27;;;2.00;;
3443;SDS011;1736;52.068;6.968;2023-08-07T01:05:13;6.00;;;2.17;;
3443;SDS011;1736;52.068;6.968;2023-08-07T01:07:40;4.10;;;2.23;;
3443;SDS011;1736;52.068;6.968;2023-08-07T01:10:07;3.90;;;1.80;;
3443;SDS011;1736;52.068;6.968;2023-08-07T01:12:36;2.10;;;1.80;;
3443;SDS011;1736;52.068;6.968;2023-08-07T01:15:10;5.60;;;2.20;;
3443;SDS011;1736;52.068;6.968;2023-08-07T01:17:40;5.33;;;1.70;;
3443;SDS011;1736;52.068;6.968;2023-08-07T01:20:10;2.30;;;2.10;;
3443;SDS011;1736;52.068;6.968;2023-08-07T01:22:38;6.87;;;2.30;;
3443;SDS011;1736;52.068;6.968;2023-08-07T01:25:05;3.33;;;1.93;;
3443;SDS011;1736;52.068;6.968;2023-08-07T01:27:35;3.47;;;2.10;;
3443;SDS011;1736;52.068;6.968;2023-08-07T01:30:09;10.93;;;1.90;;
3443;SDS011;1736;52.068;6.968;2023-08-07T01:32:43;4.17;;;1.87;;
3443;SDS011;1736;52.068;6.968;2023-08-07T01:35:20;2.23;;;1.53;;
3443;SDS011;1736;52.068;6.968;2023-08-07T01:37:52;3.07;;;1.50;;
3443;SDS011;1736;52.068;6.968;2023-08-07T01:40:21;4.10;;;1.80;;
3443;SDS011;1736;52.068;6.968;2023-08-07T01:42:48;1.70;;;1.50;;
3443;SDS011;1736;52.068;6.968;2023-08-07T01:45:21;3.03;;;1.90;;
3443;SDS011;1736;52.068;6.968;2023-08-07T01:47:49;5.60;;;2.30;;
3443;SDS011;1736;52.068;6.968;2023-08-07T01:50:15;4.47;;;1.90;;
3443;SDS011;1736;52.068;6.968;2023-08-07T01:52:42;7.07;;;2.30;;
3443;SDS011;1736;52.068;6.968;2023-08-07T01:55:10;4.60;;;2.33;;
3443;SDS011;1736;52.068;6.968;2023-08-07T01:57:37;2.20;;;2.00;;
3443;SDS011;1736;52.068;6.968;2023-08-07T02:00:03;8.43;;;2.53;;
3443;SDS011;1736;52.068;6.968;2023-08-07T02:02:31;5.73;;;3.43;;
3443;SDS011;1736;52.068;6.968;2023-08-07T02:04:57;7.03;;;3.70;;
3443;SDS011;1736;52.068;6.968;2023-08-07T02:07:24;3.70;;;2.70;;
3443;SDS011;1736;52.068;6.968;2023-08-07T02:09:51;3.20;;;2.20;;
3443;SDS011;1736;52.068;6.968;2023-08-07T02:12:19;5.37;;;2.50;;
3443;SDS011;1736;52.068;6.968;2023-08-07T02:14:45;2.07;;;1.90;;
3443;SDS011;1736;52.068;6.968;2023-08-07T02:17:12;6.40;;;1.90;;
3443;SDS011;1736;52.068;6.968;2023-08-07T02:19:39;1.97;;;1.73;;
3443;SDS011;1736;52.068;6.968;2023-08-07T02:22:05;4.63;;;2.20;;
3443;SDS011;1736;52.068;6.968;2023-08-07T02:24:32;2.30;;;1.90;;
3443;SDS011;1736;52.068;6.968;2023-08-07T02:26:58;4.40;;;2.63;;
3443;SDS011;1736;52.068;6.968;2023-08-07T02:29:26;5.33;;;2.97;;
3443;SDS011;1736;52.068;6.968;2023-08-07T02:31:55;3.50;;;2.23;;
3443;SDS011;1736;52.068;6.968;2023-08-07T02:34:21;4.77;;;2.30;;
3443;SDS011;1736;52.068;6.968;2023-08-07T02:36:48;5.60;;;1.70;;
3443;SDS011;1736;52.068;6.968;2023-08-07T02:39:14;3.53;;;1.70;;
3443;SDS011;1736;52.068;6.968;2023-08-07T02:41:41;2.10;;;1.60;;
3443;SDS011;1736;52.068;6.968;2023-08-07T02:44:08;3.37;;;1.47;;
3443;SDS011;1736;52.068;6.968;2023-08-07T02:46:36;2.30;;;1.60;;
3443;SDS011;1736;52.068;6.968;2023-08-07T02:49:02;6.03;;;1.80;;
3443;SDS011;1736;52.068;6.968;2023-08-07T02:51:30;1.53;;;1.43;;
3443;SDS011;1736;52.068;6.968;2023-08-07T02:53:56;1.73;;;1.40;;
3443;SDS011;1736;52.068;6.968;2023-08-07T02:56:23;1.93;;;1.10;;
3443;SDS011;1736;52.068;6.968;2023-08-07T02:58:50;5.73;;;2.00;;
3443;SDS011;1736;52.068;6.968;2023-08-07T03:01:16;2.90;;;2.03;;
3443;SDS011;1736;52.068;6.968;2023-08-07T03:03:44;4.93;;;2.23;;
3443;SDS011;1736;52.068;6.968;2023-08-07T03:06:11;3.33;;;2.00;;
3443;SDS011;1736;52.068;6.968;2023-08-07T03:08:38;2.30;;;2.07;;
3443;SDS011;1736;52.068;6.968;2023-08-07T03:11:04;2.20;;;1.90;;
3443;SDS011;1736;52.068;6.968;2023-08-07T03:13:31;6.47;;;1.83;;
3443;SDS011;1736;52.068;6.968;2023-08-07T03:16:01;1.60;;;1.50;;
3443;SDS011;1736;52.068;6.968;2023-08-07T03:18:28;2.20;;;1.70;;
3443;SDS011;1736;52.068;6.968;2023-08-07T03:20:56;1.97;;;1.87;;
3443;SDS011;1736;52.068;6.968;2023-08-07T03:23:23;1.90;;;1.70;;
3443;SDS011;1736;52.068;6.968;2023-08-07T03:25:50;6.83;;;3.93;;
3443;SDS011;1736;52.068;6.968;2023-08-07T03:28:27;6.33;;;4.00;;
3443;SDS011;1736;52.068;6.968;2023-08-07T03:30:54;10.73;;;4.50;;
3443;SDS011;1736;52.068;6.968;2023-08-07T03:33:20;9.20;;;4.37;;
3443;SDS011;1736;52.068;6.968;2023-08-07T03:35:47;6.80;;;4.57;;
3443;SDS011;1736;52.068;6.968;2023-08-07T03:38:15;6.07;;;3.47;;
3443;SDS011;1736;52.068;6.968;2023-08-07T03:40:41;9.43;;;3.60;;
3443;SDS011;1736;52.068;6.968;2023-08-07T03:43:08;6.70;;;3.53;;
3443;SDS011;1736;52.068;6.968;2023-08-07T03:45:34;8.30;;;2.80;;
3443;SDS011;1736;52.068;6.968;2023-08-07T03:48:01;8.00;;;3.10;;
3443;SDS011;1736;52.068;6.968;2023-08-07T03:50:28;5.73;;;2.50;;
3443;SDS011;1736;52.068;6.968;2023-08-07T03:52:55;6.30;;;2.70;;
3443;SDS011;1736;52.068;6.968;2023-08-07T03:55:23;5.63;;;3.30;;
3443;SDS011;1736;52.068;6.968;2023-08-07T03:57:50;4.53;;;3.13;;
3443;SDS011;1736;52.068;6.968;2023-08-07T04:00:17;6.90;;;2.97;;
3443;SDS011;1736;52.068;6.968;2023-08-07T04:02:43;8.67;;;3.27;;
3443;SDS011;1736;52.068;6.968;2023-08-07T04:05:11;6.30;;;2.63;;
3443;SDS011;1736;52.068;6.968;2023-08-07T04:07:37;9.63;;;3.10;;
3443;SDS011;1736;52.068;6.968;2023-08-07T04:10:04;7.63;;;3.00;;
3443;SDS011;1736;52.068;6.968;2023-08-07T04:12:33;8.13;;;3.20;;
3443;SDS011;1736;52.068;6.968;2023-08-07T04:15:00;7.00;;;3.20;;
3443;SDS011;1736;52.068;6.968;2023-08-07T04:17:26;5.97;;;2.50;;
3443;SDS011;1736;52.068;6.968;2023-08-07T04:19:53;7.70;;;3.00;;
3443;SDS011;1736;52.068;6.968;2023-08-07T04:22:19;11.43;;;4.00;;
3443;SDS011;1736;52.068;6.968;2023-08-07T04:24:46;15.50;;;3.90;;
3443;SDS011;1736;52.068;6.968;2023-08-07T04:27:13;5.53;;;2.73;;
3443;SDS011;1736;52.068;6.968;2023-08-07T04:29:41;8.93;;;2.90;;
3443;SDS011;1736;52.068;6.968;2023-08-07T04:32:08;5.40;;;2.57;;
3443;SDS011;1736;52.068;6.968;2023-08-07T04:34:34;8.83;;;2.97;;
3443;SDS011;1736;52.068;6.968;2023-08-07T04:37:01;8.43;;;2.53;;
3443;SDS011;1736;52.068;6.968;2023-08-07T04:39:27;8.50;;;2.60;;
3443;SDS011;1736;52.068;6.968;2023-08-07T04:41:55;6.93;;;2.80;;
3443;SDS011;1736;52.068;6.968;2023-08-07T04:44:22;4.97;;;2.93;;
3443;SDS011;1736;52.068;6.968;2023-08-07T04:46:50;2.77;;;2.10;;
3443;SDS011;1736;52.068;6.968;2023-08-07T04:49:17;7.53;;;2.77;;
3443;SDS011;1736;52.068;6.968;2023-08-07T04:51:43;10.23;;;2.83;;
3443;SDS011;1736;52.068;6.968;2023-08-07T04:54:10;6.07;;;2.70;;
3443;SDS011;1736;52.068;6.968;2023-08-07T04:56:37;6.53;;;2.80;;
3443;SDS011;1736;52.068;6.968;2023-08-07T04:59:03;3.87;;;2.70;;
3443;SDS011;1736;52.068;6.968;2023-08-07T05:01:30;7.20;;;2.63;;
3443;SDS011;1736;52.068;6.968;2023-08-07T05:03:58;3.10;;;2.50;;
3443;SDS011;1736;52.068;6.968;2023-08-07T05:06:25;8.20;;;3.23;;
3443;SDS011;1736;52.068;6.968;2023-08-07T05:08:52;8.73;;;3.10;;
3443;SDS011;1736;52.068;6.968;2023-08-07T05:11:18;3.80;;;2.73;;
3443;SDS011;1736;52.068;6.968;2023-08-07T05:13:46;5.30;;;2.80;;
3443;SDS011;1736;52.068;6.968;2023-08-07T05:16:12;5.53;;;2.50;;
3443;SDS011;1736;52.068;6.968;2023-08-07T05:18:39;3.93;;;2.93;;
3443;SDS011;1736;52.068;6.968;2023-08-07T05:21:07;11.17;;;3.30;;
3443;SDS011;1736;52.068;6.968;2023-08-07T05:23:34;4.17;;;2.40;;
3443;SDS011;1736;52.068;6.968;2023-08-07T05:26:01;5.10;;;2.40;;
3443;SDS011;1736;52.068;6.968;2023-08-07T05:28:28;4.13;;;2.50;;
3443;SDS011;1736;52.068;6.968;2023-08-07T05:30:55;3.13;;;2.83;;
3443;SDS011;1736;52.068;6.968;2023-08-07T05:33:22;6.40;;;2.97;;
3443;SDS011;1736;52.068;6.968;2023-08-07T05:35:48;3.80;;;2.90;;
3443;SDS011;1736;52.068;6.968;2023-08-07T05:38:19;7.40;;;3.33;;
3443;SDS011;1736;52.068;6.968;2023-08-07T05:40:45;9.33;;;4.10;;
3443;SDS011;1736;52.068;6.968;2023-08-07T05:43:12;5.63;;;3.10;;
3443;SDS011;1736;52.068;6.968;2023-08-07T05:45:39;10.43;;;3.47;;
3443;SDS011;1736;52.068;6.968;2023-08-07T05:48:05;12.60;;;4.13;;
3443;SDS011;1736;52.068;6.968;2023-08-07T05:50:34;8.13;;;4.17;;
3443;SDS011;1736;52.068;6.968;2023-08-07T05:53:01;15.37;;;4.47;;
3443;SDS011;1736;52.068;6.968;2023-08-07T05:55:29;28.50;;;16.60;;
3443;SDS011;1736;52.068;6.968;2023-08-07T05:57:55;17.00;;;10.00;;
3443;SDS011;1736;52.068;6.968;2023-08-07T06:00:22;10.93;;;6.67;;
3443;SDS011;1736;52.068;6.968;2023-08-07T06:02:49;12.13;;;6.97;;
3443;SDS011;1736;52.068;6.968;2023-08-07T06:05:15;9.73;;;4.13;;
3443;SDS011;1736;52.068;6.968;2023-08-07T06:07:42;11.83;;;3.67;;
3443;SDS011;1736;52.068;6.968;2023-08-07T06:10:09;5.40;;;3.13;;
3443;SDS011;1736;52.068;6.968;2023-08-07T06:12:38;9.47;;;3.83;;
3443;SDS011;1736;52.068;6.968;2023-08-07T06:15:05;6.10;;;4.13;;
3443;SDS011;1736;52.068;6.968;2023-08-07T06:17:32;8.40;;;4.20;;
3443;SDS011;1736;52.068;6.968;2023-08-07T06:19:58;10.80;;;3.73;;
3443;SDS011;1736;52.068;6.968;2023-08-07T06:22:25;9.80;;;5.17;;
3443;SDS011;1736;52.068;6.968;2023-08-07T06:24:52;14.20;;;3.70;;
3443;SDS011;1736;52.068;6.968;2023-08-07T06:27:20;7.30;;;4.00;;
3443;SDS011;1736;52.068;6.968;2023-08-07T06:29:49;9.27;;;3.60;;
3443;SDS011;1736;52.068;6.968;2023-08-07T06:32:15;8.77;;;3.20;;
3443;SDS011;1736;52.068;6.968;2023-08-07T06:34:43;7.27;;;3.83;;
3443;SDS011;1736;52.068;6.968;2023-08-07T06:37:11;16.40;;;4.53;;
3443;SDS011;1736;52.068;6.968;2023-08-07T06:39:38;7.70;;;3.03;;
3443;SDS011;1736;52.068;6.968;2023-08-07T06:42:04;9.70;;;3.50;;
3443;SDS011;1736;52.068;6.968;2023-08-07T06:44:31;4.90;;;4.00;;
3443;SDS011;1736;52.068;6.968;2023-08-07T06:46:59;8.43;;;3.60;;
3443;SDS011;1736;52.068;6.968;2023-08-07T06:49:26;8.93;;;3.13;;
3443;SDS011;1736;52.068;6.968;2023-08-07T06:51:52;10.27;;;3.73;;
3443;SDS011;1736;52.068;6.968;2023-08-07T06:54:19;8.00;;;3.90;;
3443;SDS011;1736;52.068;6.968;2023-08-07T06:56:45;7.87;;;3.90;;
3443;SDS011;1736;52.068;6.968;2023-08-07T06:59:12;6.70;;;3.13;;
3443;SDS011;1736;52.068;6.968;2023-08-07T07:01:39;9.67;;;3.50;;
3443;SDS011;1736;52.068;6.968;2023-08-07T07:04:07;11.00;;;3.20;;
3443;SDS011;1736;52.068;6.968;2023-08-07T07:06:33;7.33;;;3.33;;
3443;SDS011;1736;52.068;6.968;2023-08-07T07:09:00;5.73;;;3.20;;
3443;SDS011;1736;52.068;6.968;2023-08-07T07:11:26;9.30;;;3.60;;
3443;SDS011;1736;52.068;6.968;2023-08-07T07:13:53;7.00;;;3.23;;
3443;SDS011;1736;52.068;6.968;2023-08-07T07:16:20;12.60;;;3.60;;
3443;SDS011;1736;52.068;6.968;2023-08-07T07:18:47;14.37;;;3.50;;
3443;SDS011;1736;52.068;6.968;2023-08-07T07:21:15;15.33;;;3.70;;
3443;SDS011;1736;52.068;6.968;2023-08-07T07:23:42;4.40;;;2.97;;
3443;SDS011;1736;52.068;6.968;2023-08-07T07:26:08;6.77;;;3.20;;
3443;SDS011;1736;52.068;6.968;2023-08-07T07:28:35;10.87;;;3.40;;
3443;SDS011;1736;52.068;6.968;2023-08-07T07:31:02;14.40;;;3.43;;
3443;SDS011;1736;52.068;6.968;2023-08-07T07:33:30;6.80;;;3.50;;
3443;SDS011;1736;52.068;6.968;2023-08-07T07:35:57;6.10;;;3.00;;
3443;SDS011;1736;52.068;6.968;2023-08-07T07:38:25;13.77;;;3.87;;
3443;SDS011;1736;52.068;6.968;2023-08-07T07:40:52;10.37;;;3.43;;
3443;SDS011;1736;52.068;6.968;2023-08-07T07:43:21;8.37;;;2.93;;
3443;SDS011;1736;52.068;6.968;2023-08-07T07:45:48;10.23;;;3.67;;
3443;SDS011;1736;52.068;6.968;2023-08-07T07:48:15;8.60;;;3.63;;
3443;SDS011;1736;52.068;6.968;2023-08-07T07:50:41;6.83;;;3.83;;
3443;SDS011;1736;52.068;6.968;2023-08-07T07:53:08;8.80;;;3.50;;
3443;SDS011;1736;52.068;6.968;2023-08-07T07:55:36;14.67;;;4.60;;
3443;SDS011;1736;52.068;6.968;2023-08-07T07:58:03;8.90;;;4.00;;
3443;SDS011;1736;52.068;6.968;2023-08-07T08:00:29;10.83;;;4.27;;
3443;SDS011;1736;52.068;6.968;2023-08-07T08:02:56;14.37;;;4.33;;
3443;SDS011;1736;52.068;6.968;2023-08-07T08:05:22;8.27;;;3.80;;
3443;SDS011;1736;52.068;6.968;2023-08-07T08:07:49;12.87;;;4.10;;
3443;SDS011;1736;52.068;6.968;2023-08-07T08:10:16;13.60;;;3.60;;
3443;SDS011;1736;52.068;6.968;2023-08-07T08:12:44;10.37;;;3.60;;
3443;SDS011;1736;52.068;6.968;2023-08-07T08:15:10;19.17;;;3.93;;
3443;SDS011;1736;52.068;6.968;2023-08-07T08:17:37;7.37;;;3.67;;
3443;SDS011;1736;52.068;6.968;2023-08-07T08:20:04;9.03;;;3.30;;
3443;SDS011;1736;52.068;6.968;2023-08-07T08:22:32;11.47;;;4.30;;
3443;SDS011;1736;52.068;6.968;2023-08-07T08:24:58;14.03;;;4.00;;
3443;SDS011;1736;52.068;6.968;2023-08-07T08:27:25;6.00;;;3.33;;
3443;SDS011;1736;52.068;6.968;2023-08-07T08:29:53;7.37;;;3.80;;
3443;SDS011;1736;52.068;6.968;2023-08-07T08:32:20;11.03;;;4.70;;
3443;SDS011;1736;52.068;6.968;2023-08-07T08:34:46;14.63;;;3.80;;
3443;SDS011;1736;52.068;6.968;2023-08-07T08:37:14;11.83;;;3.63;;
3443;SDS011;1736;52.068;6.968;2023-08-07T08:39:41;11.07;;;3.87;;
3443;SDS011;1736;52.068;6.968;2023-08-07T08:42:08;10.13;;;3.83;;
3443;SDS011;1736;52.068;6.968;2023-08-07T08:44:38;10.30;;;3.40;;
3443;SDS011;1736;52.068;6.968;2023-08-07T08:47:07;10.37;;;3.30;;
3443;SDS011;1736;52.068;6.968;2023-08-07T08:49:35;7.70;;;3.23;;
3443;SDS011;1736;52.068;6.968;2023-08-07T08:52:07;6.87;;;2.90;;
3443;SDS011;1736;52.068;6.968;2023-08-07T08:54:35;10.90;;;3.33;;
3443;SDS011;1736;52.068;6.968;2023-08-07T08:57:02;8.47;;;3.03;;
3443;SDS011;1736;52.068;6.968;2023-08-07T08:59:30;6.07;;;2.73;;
3443;SDS011;1736;52.068;6.968;2023-08-07T09:01:57;7.87;;;2.80;;
3443;SDS011;1736;52.068;6.968;2023-08-07T09:04:25;8.03;;;2.70;;
3443;SDS011;1736;52.068;6.968;2023-08-07T09:06:51;8.93;;;3.17;;
3443;SDS011;1736;52.068;6.968;2023-08-07T09:09:19;7.23;;;2.83;;
3443;SDS011;1736;52.068;6.968;2023-08-07T09:11:47;5.80;;;3.10;;
3443;SDS011;1736;52.068;6.968;2023-08-07T09:14:15;7.93;;;3.03;;
3443;SDS011;1736;52.068;6.968;2023-08-07T09:16:43;10.53;;;2.97;;
3443;SDS011;1736;52.068;6.968;2023-08-07T09:19:10;9.13;;;3.00;;
3443;SDS011;1736;52.068;6.968;2023-08-07T09:21:38;5.53;;;2.83;;
3443;SDS011;1736;52.068;6.968;2023-08-07T09:24:05;9.90;;;3.03;;
3443;SDS011;1736;52.068;6.968;2023-08-07T09:26:32;10.73;;;2.80;;
3443;SDS011;1736;52.068;6.968;2023-08-07T09:28:59;12.03;;;2.70;;
3443;SDS011;1736;52.068;6.968;2023-08-07T09:31:27;5.50;;;3.00;;
3443;SDS011;1736;52.068;6.968;2023-08-07T09:34:00;4.77;;;2.37;;
3443;SDS011;1736;52.068;6.968;2023-08-07T09:36:29;12.00;;;3.10;;
3443;SDS011;1736;52.068;6.968;2023-08-07T09:38:58;6.10;;;3.30;;
3443;SDS011;1736;52.068;6.968;2023-08-07T09:41:27;9.10;;;2.57;;
3443;SDS011;1736;52.068;6.968;2023-08-07T09:43:55;5.60;;;2.77;;
3443;SDS011;1736;52.068;6.968;2023-08-07T09:46:22;6.20;;;2.60;;
3443;SDS011;1736;52.068;6.968;2023-08-07T09:48:48;7.00;;;2.40;;
3443;SDS011;1736;52.068;6.968;2023-08-07T09:51:15;7.33;;;2.67;;
3443;SDS011;1736;52.068;6.968;2023-08-07T09:53:41;8.20;;;2.97;;
3443;SDS011;1736;52.068;6.968;2023-08-07T09:56:09;9.47;;;2.80;;
3443;SDS011;1736;52.068;6.968;2023-08-07T09:58:39;5.07;;;2.83;;
3443;SDS011;1736;52.068;6.968;2023-08-07T10:01:13;10.20;;;2.80;;
3443;SDS011;1736;52.068;6.968;2023-08-07T10:03:42;6.73;;;3.00;;
3443;SDS011;1736;52.068;6.968;2023-08-07T10:06:09;7.50;;;2.60;;
3443;SDS011;1736;52.068;6.968;2023-08-07T10:08:37;4.00;;;2.53;;
3443;SDS011;1736;52.068;6.968;2023-08-07T10:11:05;8.37;;;2.63;;
3443;SDS011;1736;52.068;6.968;2023-08-07T10:13:35;11.90;;;3.00;;
3443;SDS011;1736;52.068;6.968;2023-08-07T10:16:03;5.87;;;3.03;;
3443;SDS011;1736;52.068;6.968;2023-08-07T10:18:30;8.83;;;2.70;;
3443;SDS011;1736;52.068;6.968;2023-08-07T10:20:57;7.13;;;2.73;;
3443;SDS011;1736;52.068;6.968;2023-08-07T10:23:24;5.97;;;2.60;;
3443;SDS011;1736;52.068;6.968;2023-08-07T10:25:50;9.30;;;2.90;;
3443;SDS011;1736;52.068;6.968;2023-08-07T10:28:18;14.60;;;2.80;;
3443;SDS011;1736;52.068;6.968;2023-08-07T10:30:47;11.10;;;3.63;;
3443;SDS011;1736;52.068;6.968;2023-08-07T10:33:14;7.27;;;2.63;;
3443;SDS011;1736;52.068;6.968;2023-08-07T10:35:45;8.43;;;2.50;;
3443;SDS011;1736;52.068;6.968;2023-08-07T10:38:13;7.43;;;3.00;;
3443;SDS011;1736;52.068;6.968;2023-08-07T10:40:59;6.67;;;2.63;;
3443;SDS011;1736;52.068;6.968;2023-08-07T10:43:27;6.03;;;2.60;;
3443;SDS011;1736;52.068;6.968;2023-08-07T10:45:55;5.40;;;3.43;;
3443;SDS011;1736;52.068;6.968;2023-08-07T10:48:28;6.30;;;2.67;;
3443;SDS011;1736;52.068;6.968;2023-08-07T10:50:56;4.13;;;2.00;;
3443;SDS011;1736;52.068;6.968;2023-08-07T10:53:28;5.00;;;2.10;;
3443;SDS011;1736;52.068;6.968;2023-08-07T10:55:56;5.30;;;2.27;;
3443;SDS011;1736;52.068;6.968;2023-08-07T10:58:24;5.70;;;1.97;;
3443;SDS011;1736;52.068;6.968;2023-08-07T11:00:52;7.73;;;2.00;;
3443;SDS011;1736;52.068;6.968;2023-08-07T11:03:36;4.43;;;2.30;;
3443;SDS011;1736;52.068;6.968;2023-08-07T11:06:03;6.97;;;2.17;;
3443;SDS011;1736;52.068;6.968;2023-08-07T11:08:31;4.53;;;2.30;;
3443;SDS011;1736;52.068;6.968;2023-08-07T11:10:57;3.70;;;1.70;;
3443;SDS011;1736;52.068;6.968;2023-08-07T11:13:30;3.77;;;2.40;;
3443;SDS011;1736;52.068;6.968;2023-08-07T11:15:57;5.40;;;2.13;;
3443;SDS011;1736;52.068;6.968;2023-08-07T11:18:25;3.63;;;1.60;;
3443;SDS011;1736;52.068;6.968;2023-08-07T11:20:56;2.00;;;1.73;;
3443;SDS011;1736;52.068;6.968;2023-08-07T11:23:24;3.93;;;1.93;;
3443;SDS011;1736;52.068;6.968;2023-08-07T11:25:52;9.10;;;2.20;;
3443;SDS011;1736;52.068;6.968;2023-08-07T11:28:19;3.17;;;1.60;;
3443;SDS011;1736;52.068;6.968;2023-08-07T11:30:46;7.50;;;2.57;;
3443;SDS011;1736;52.068;6.968;2023-08-07T11:33:16;3.13;;;2.03;;
3443;SDS011;1736;52.068;6.968;2023-08-07T11:35:43;4.47;;;2.13;;
3443;SDS011;1736;52.068;6.968;2023-08-07T11:38:12;3.63;;;2.17;;
3443;SDS011;1736;52.068;6.968;2023-08-07T11:40:38;5.30;;;2.33;;
3443;SDS011;1736;52.068;6.968;2023-08-07T11:43:05;3.80;;;2.13;;
3443;SDS011;1736;52.068;6.968;2023-08-07T11:45:31;4.40;;;2.57;;
3443;SDS011;1736;52.068;6.968;2023-08-07T11:47:58;5.23;;;2.30;;
3443;SDS011;1736;52.068;6.968;2023-08-07T11:50:27;5.00;;;2.50;;
3443;SDS011;1736;52.068;6.968;2023-08-07T11:52:54;8.03;;;2.20;;
3443;SDS011;1736;52.068;6.968;2023-08-07T11:55:27;7.93;;;2.67;;
3443;SDS011;1736;52.068;6.968;2023-08-07T11:57:55;3.43;;;2.30;;
3443;SDS011;1736;52.068;6.968;2023-08-07T12:00:24;13.37;;;2.50;;
3443;SDS011;1736;52.068;6.968;2023-08-07T12:02:52;7.03;;;2.43;;
3443;SDS011;1736;52.068;6.968;2023-08-07T12:05:18;6.40;;;2.60;;
3443;SDS011;1736;52.068;6.968;2023-08-07T12:07:46;7.67;;;2.10;;
3443;SDS011;1736;52.068;6.968;2023-08-07T12:10:13;5.80;;;2.30;;
3443;SDS011;1736;52.068;6.968;2023-08-07T12:12:42;5.60;;;2.40;;
3443;SDS011;1736;52.068;6.968;2023-08-07T12:15:09;6.20;;;2.17;;
3443;SDS011;1736;52.068;6.968;2023-08-07T12:17:37;7.77;;;2.07;;
3443;SDS011;1736;52.068;6.968;2023-08-07T12:20:04;7.93;;;2.27;;
3443;SDS011;1736;52.068;6.968;2023-08-07T12:22:35;3.80;;;2.67;;
3443;SDS011;1736;52.068;6.968;2023-08-07T12:25:02;5.53;;;2.47;;
3443;SDS011;1736;52.068;6.968;2023-08-07T12:27:28;7.10;;;2.47;;
3443;SDS011;1736;52.068;6.968;2023-08-07T12:29:56;3.23;;;2.10;;
3443;SDS011;1736;52.068;6.968;2023-08-07T12:32:23;5.90;;;2.20;;
3443;SDS011;1736;52.068;6.968;2023-08-07T12:34:49;4.70;;;2.33;;
3443;SDS011;1736;52.068;6.968;2023-08-07T12:37:18;4.50;;;2.50;;
3443;SDS011;1736;52.068;6.968;2023-08-07T12:39:45;3.57;;;2.20;;
3443;SDS011;1736;52.068;6.968;2023-08-07T12:42:11;5.90;;;2.20;;
3443;SDS011;1736;52.068;6.968;2023-08-07T12:44:38;6.07;;;2.73;;
3443;SDS011;1736;52.068;6.968;2023-08-07T12:47:06;5.33;;;2.20;;
3443;SDS011;1736;52.068;6.968;2023-08-07T12:49:33;5.70;;;2.60;;
3443;SDS011;1736;52.068;6.968;2023-08-07T12:51:59;6.03;;;2.80;;
3443;SDS011;1736;52.068;6.968;2023-08-07T12:54:26;7.27;;;3.00;;
3443;SDS011;1736;52.068;6.968;2023-08-07T12:56:52;4.10;;;2.23;;
3443;SDS011;1736;52.068;6.968;2023-08-07T12:59:20;5.67;;;2.67;;
3443;SDS011;1736;52.068;6.968;2023-08-07T13:01:47;9.03;;;2.40;;
3443;SDS011;1736;52.068;6.968;2023-08-07T13:04:15;6.50;;;2.23;;
3443;SDS011;1736;52.068;6.968;2023-08-07T13:06:42;4.83;;;2.07;;
3443;SDS011;1736;52.068;6.968;2023-08-07T13:09:08;4.80;;;2.33;;
3443;SDS011;1736;52.068;6.968;2023-08-07T13:11:35;3.20;;;2.10;;
3443;SDS011;1736;52.068;6.968;2023-08-07T13:14:02;4.67;;;2.50;;
3443;SDS011;1736;52.068;6.968;2023-08-07T13:16:28;6.90;;;2.80;;
3443;SDS011;1736;52.068;6.968;2023-08-07T13:18:55;8.90;;;2.20;;
3443;SDS011;1736;52.068;6.968;2023-08-07T13:21:23;6.67;;;2.03;;
3443;SDS011;1736;52.068;6.968;2023-08-07T13:23:50;3.17;;;2.07;;
3443;SDS011;1736;52.068;6.968;2023-08-07T13:26:15;5.70;;;2.80;;
3443;SDS011;1736;52.068;6.968;2023-08-07T13:28:42;3.13;;;2.03;;
3443;SDS011;1736;52.068;6.968;2023-08-07T13:31:09;3.33;;;2.20;;
3443;SDS011;1736;52.068;6.968;2023-08-07T13:33:36;3.00;;;1.90;;
3443;SDS011;1736;52.068;6.968;2023-08-07T13:36:02;2.13;;;1.73;;
3443;SDS011;1736;52.068;6.968;2023-08-07T13:38:30;2.67;;;1.83;;
3443;SDS011;1736;52.068;6.968;2023-08-07T13:40:57;2.30;;;1.80;;
3443;SDS011;1736;52.068;6.968;2023-08-07T13:43:23;2.57;;;1.70;;
3443;SDS011;1736;52.068;6.968;2023-08-07T13:45:50;2.90;;;1.73;;
3443;SDS011;1736;52.068;6.968;2023-08-07T13:48:17;4.20;;;2.17;;
3443;SDS011;1736;52.068;6.968;2023-08-07T13:50:44;4.30;;;2.17;;
3443;SDS011;1736;52.068;6.968;2023-08-07T13:53:10;4.40;;;1.87;;
3443;SDS011;1736;52.068;6.968;2023-08-07T13:55:38;4.63;;;2.00;;
3443;SDS011;1736;52.068;6.968;2023-08-07T13:58:05;4.10;;;1.97;;
3443;SDS011;1736;52.068;6.968;2023-08-07T14:00:32;3.60;;;2.03;;
3443;SDS011;1736;52.068;6.968;2023-08-07T14:02:59;3.60;;;2.10;;
3443;SDS011;1736;52.068;6.968;2023-08-07T14:05:26;7.23;;;2.50;;
3443;SDS011;1736;52.068;6.968;2023-08-07T14:07:53;3.90;;;2.23;;
3443;SDS011;1736;52.068;6.968;2023-08-07T14:10:19;4.80;;;2.00;;
3443;SDS011;1736;52.068;6.968;2023-08-07T14:12:47;3.40;;;2.00;;
3443;SDS011;1736;52.068;6.968;2023-08-07T14:15:14;4.07;;;2.10;;
3443;SDS011;1736;52.068;6.968;2023-08-07T14:17:40;5.83;;;1.93;;
3443;SDS011;1736;52.068;6.968;2023-08-07T14:20:07;3.53;;;1.97;;
3443;SDS011;1736;52.068;6.968;2023-08-07T14:22:35;4.97;;;2.33;;
3443;SDS011;1736;52.068;6.968;2023-08-07T14:25:03;6.10;;;2.40;;
3443;SDS011;1736;52.068;6.968;2023-08-07T14:27:31;2.60;;;2.10;;
3443;SDS011;1736;52.068;6.968;2023-08-07T14:30:00;3.47;;;2.07;;
3443;SDS011;1736;52.068;6.968;2023-08-07T14:32:26;4.53;;;2.30;;
3443;SDS011;1736;52.068;6.968;2023-08-07T14:34:53;4.93;;;2.50;;
3443;SDS011;1736;52.068;6.968;2023-08-07T14:37:19;4.83;;;2.50;;
3443;SDS011;1736;52.068;6.968;2023-08-07T14:39:46;5.43;;;2.33;;
3443;SDS011;1736;52.068;6.968;2023-08-07T14:42:13;5.20;;;2.40;;
3443;SDS011;1736;52.068;6.968;2023-08-07T14:44:39;14.90;;;2.47;;
3443;SDS011;1736;52.068;6.968;2023-08-07T14:47:07;3.93;;;2.70;;
3443;SDS011;1736;52.068;6.968;2023-08-07T14:49:34;4.47;;;2.70;;
3443;SDS011;1736;52.068;6.968;2023-08-07T14:52:01;8.00;;;3.40;;
3443;SDS011;1736;52.068;6.968;2023-08-07T14:54:28;8.03;;;3.13;;
3443;SDS011;1736;52.068;6.968;2023-08-07T14:56:54;10.97;;;4.07;;
3443;SDS011;1736;52.068;6.968;2023-08-07T14:59:23;8.77;;;3.47;;
3443;SDS011;1736;52.068;6.968;2023-08-07T15:01:50;5.67;;;2.73;;
3443;SDS011;1736;52.068;6.968;2023-08-07T15:04:18;4.80;;;2.50;;
3443;SDS011;1736;52.068;6.968;2023-08-07T15:06:45;3.27;;;2.20;;
3443;SDS011;1736;52.068;6.968;2023-08-07T15:09:13;4.97;;;2.20;;
3443;SDS011;1736;52.068;6.968;2023-08-07T15:11:40;4.40;;;2.10;;
3443;SDS011;1736;52.068;6.968;2023-08-07T15:14:06;7.97;;;2.40;;